Allemand, Louisiana
Current Conditions -  °F | °C
As of 2:55 AM on Monday 20 Oct 2014 (Local Time) from KHUM Reporting Station
Haze Haze  
Wind Chill: 58°   Ceiling: Unl
Heat Index: 58°   Visibility: 4mi
Dew Point: 58°   Wind: 0mph
Humidity: 99%   Direction: NA
Pressure: 30.04"   Gusts: NA
Location:  29.5867°N, 90.8252°W
Report Text: KHUM 200755Z AUTO 00000KT 4SM BR CLR 15/15 A3004 RMK AO2 T01460145
Loading
Personal Weather Stations






























Interactive Weather Map
Tropical Storm Tracking
New forecast layout! Learn more

10-Day Weather Forecast

Advertisements
Track Severe Weather on mobile